Time;durP1;ratioP1;P1;durP2;ratioP2;P2;SDS_P1;SDS_P2;PMS_P1;PMS_P2;Temp;Humidity;BMP_temperature;BMP_pressure;BME280_temperature;BME280_humidity;BME280_pressure;Samples;Min_cycle;Max_cycle;Signal;HPM_P1;HPM_P2
2024/02/06 00:00:42;;;;;;;6.80;4.10;;;;;;;22.59;30.52;100649.21;104638;1291;61306;-81
2024/02/06 00:03:08;;;;;;;7.40;3.80;;;;;;;22.59;30.50;100645.62;104437;1290;61422;-80
2024/02/06 00:05:34;;;;;;;6.40;3.60;;;;;;;22.59;30.52;100645.81;104599;1290;61280;-81
2024/02/06 00:07:59;;;;;;;6.10;3.80;;;;;;;22.59;30.44;100648.16;104513;1290;61401;-82
2024/02/06 00:10:25;;;;;;;5.40;3.70;;;;;;;22.59;30.57;100642.08;104525;1291;61380;-81
2024/02/06 00:12:51;;;;;;;6.40;3.90;;;;;;;22.59;30.42;100642.41;104518;1290;61136;-81
2024/02/06 00:15:16;;;;;;;5.80;3.60;;;;;;;22.58;30.44;100639.46;104632;1290;59288;-81
2024/02/06 00:17:42;;;;;;;6.90;3.90;;;;;;;22.58;30.52;100645.74;104508;1290;61265;-81
2024/02/06 00:20:08;;;;;;;5.90;3.60;;;;;;;22.58;30.40;100647.39;104561;1290;61247;-81
2024/02/06 00:22:34;;;;;;;6.00;3.80;;;;;;;22.58;30.46;100646.14;104649;1294;61210;-81
2024/02/06 00:24:59;;;;;;;6.10;4.00;;;;;;;22.57;30.53;100652.08;104576;1290;61324;-82
2024/02/06 00:27:25;;;;;;;5.60;3.50;;;;;;;22.57;30.42;100658.00;104526;1290;61496;-82
2024/02/06 00:29:54;;;;;;;6.60;3.90;;;;;;;22.57;30.45;100658.03;104549;1290;61804;-82
2024/02/06 00:32:21;;;;;;;5.40;3.70;;;;;;;22.57;30.46;100663.95;104419;1290;61338;-82
2024/02/06 00:34:52;;;;;;;5.90;3.60;;;;;;;22.55;30.56;100664.80;104537;1290;74527;-81
2024/02/06 00:37:17;;;;;;;5.40;3.50;;;;;;;22.56;30.46;100671.01;104410;1290;61309;-81
2024/02/06 00:39:43;;;;;;;6.20;3.60;;;;;;;22.56;30.42;100670.15;104207;1290;61425;-81
2024/02/06 00:42:13;;;;;;;5.40;3.70;;;;;;;22.55;30.52;100675.40;104512;1290;61408;-81
2024/02/06 00:44:40;;;;;;;5.60;3.60;;;;;;;22.55;30.34;100677.59;104465;1290;75413;-82
2024/02/06 00:47:08;;;;;;;7.80;3.80;;;;;;;22.55;30.43;100679.71;104506;1290;61451;-81
2024/02/06 00:49:34;;;;;;;5.60;3.40;;;;;;;22.54;30.42;100679.05;104543;1290;61287;-81
2024/02/06 00:52:00;;;;;;;6.00;3.60;;;;;;;22.54;30.41;100679.27;104370;1290;72440;-81
2024/02/06 00:54:26;;;;;;;5.40;3.40;;;;;;;22.54;30.36;100681.60;104470;1290;61361;-81
2024/02/06 00:56:52;;;;;;;5.10;3.40;;;;;;;22.54;30.38;100678.38;104667;1290;61437;-81
2024/02/06 00:59:17;;;;;;;5.00;3.30;;;;;;;22.53;30.39;100679.14;104354;1290;61514;-81
2024/02/06 01:01:43;;;;;;;5.50;3.30;;;;;;;22.52;30.35;100675.06;104515;1290;61381;-81
2024/02/06 01:04:09;;;;;;;6.00;3.60;;;;;;;22.52;30.44;100675.77;104360;1290;61409;-81
2024/02/06 01:06:34;;;;;;;5.40;3.40;;;;;;;22.52;30.30;100676.88;104470;1293;61389;-81
2024/02/06 01:09:00;;;;;;;6.00;3.50;;;;;;;22.52;30.40;100674.59;104557;1290;61326;-81
2024/02/06 01:11:25;;;;;;;5.30;3.70;;;;;;;22.51;30.25;100675.88;104640;1290;61332;-82
2024/02/06 01:13:52;;;;;;;4.70;3.20;;;;;;;22.52;30.30;100683.39;104581;1290;61381;-82
2024/02/06 01:16:18;;;;;;;5.30;3.60;;;;;;;22.51;30.22;100692.39;104480;1290;61316;-82
2024/02/06 01:18:43;;;;;;;6.30;3.80;;;;;;;22.51;30.28;100693.86;104631;1291;61286;-81
2024/02/06 01:21:09;;;;;;;5.50;3.70;;;;;;;22.51;30.20;100702.66;104595;1290;61408;-81
2024/02/06 01:23:34;;;;;;;7.30;3.70;;;;;;;22.51;30.31;100704.81;104538;1293;61721;-81
2024/02/06 01:26:00;;;;;;;4.80;3.20;;;;;;;22.51;30.26;100707.16;104661;1291;59384;-81
2024/02/06 01:28:26;;;;;;;5.50;3.70;;;;;;;22.50;30.31;100707.00;104659;1290;59348;-82
2024/02/06 01:30:52;;;;;;;4.90;3.30;;;;;;;22.50;30.35;100709.19;104345;1290;61339;-82
2024/02/06 01:33:18;;;;;;;5.80;3.30;;;;;;;22.50;30.35;100708.45;104521;1290;62346;-81
2024/02/06 01:35:43;;;;;;;5.80;3.30;;;;;;;22.49;30.27;100708.67;104575;1292;61326;-82
2024/02/06 01:38:12;;;;;;;6.30;3.50;;;;;;;22.49;30.22;100703.84;104486;1290;72264;-80
2024/02/06 01:40:42;;;;;;;5.30;3.30;;;;;;;22.49;30.36;100697.20;104593;1291;74437;-80
2024/02/06 01:43:07;;;;;;;;;;;;;;;22.49;30.31;100694.92;104697;1290;61288;-81
2024/02/06 01:45:33;;;;;;;5.30;3.00;;;;;;;22.46;30.37;100694.09;104614;1291;59384;-80
2024/02/06 01:47:59;;;;;;;6.80;3.20;;;;;;;22.46;30.24;100683.29;104661;1290;61717;-80
2024/02/06 01:50:25;;;;;;;5.50;3.60;;;;;;;22.46;30.25;100672.70;104613;1290;59976;-82
2024/02/06 01:52:51;;;;;;;5.30;3.30;;;;;;;22.47;30.27;100667.13;104559;1290;61849;-82
2024/02/06 01:55:17;;;;;;;5.60;3.40;;;;;;;22.46;30.26;100663.20;104573;1290;61422;-81
2024/02/06 01:57:43;;;;;;;6.00;3.20;;;;;;;22.46;30.28;100664.11;104664;1290;61307;-81
2024/02/06 02:00:10;;;;;;;5.40;3.20;;;;;;;22.46;30.21;100665.70;104453;1290;61313;-81
2024/02/06 02:02:37;;;;;;;5.40;3.70;;;;;;;22.46;30.24;100665.02;104674;1290;74257;-81
2024/02/06 02:05:06;;;;;;;5.30;3.50;;;;;;;22.46;30.24;100669.86;104642;1290;61314;-81
2024/02/06 02:07:32;;;;;;;5.70;3.50;;;;;;;22.46;30.42;100669.00;104287;1290;61463;-81
2024/02/06 02:09:58;;;;;;;6.20;3.40;;;;;;;22.46;30.29;100670.44;104469;1290;61278;-82
2024/02/06 02:12:24;;;;;;;4.90;3.20;;;;;;;22.46;30.28;100675.96;104477;1290;61366;-82
2024/02/06 02:14:50;;;;;;;5.70;3.20;;;;;;;22.45;30.34;100677.44;104626;1290;61404;-82
2024/02/06 02:17:15;;;;;;;4.90;3.60;;;;;;;22.45;30.22;100681.21;104521;1290;61301;-81
2024/02/06 02:19:41;;;;;;;5.70;3.70;;;;;;;22.44;30.20;100678.21;104590;1290;61281;-82
2024/02/06 02:22:06;;;;;;;6.30;3.40;;;;;;;22.45;30.29;100680.38;104489;1290;72507;-82
2024/02/06 02:24:32;;;;;;;4.90;3.30;;;;;;;22.44;30.23;100682.00;104440;1290;61380;-82
2024/02/06 02:26:58;;;;;;;5.60;3.50;;;;;;;22.44;30.33;100680.25;104519;1290;61372;-82
2024/02/06 02:29:24;;;;;;;4.80;3.20;;;;;;;22.44;30.30;100677.36;104577;1290;59313;-82
2024/02/06 02:31:49;;;;;;;4.90;3.20;;;;;;;22.43;30.26;100672.40;104494;1290;61415;-81
2024/02/06 02:34:15;;;;;;;5.80;3.70;;;;;;;22.43;30.28;100674.72;104617;1290;59282;-81
2024/02/06 02:36:41;;;;;;;5.40;3.10;;;;;;;22.43;30.18;100672.25;104476;1290;74458;-81
2024/02/06 02:39:07;;;;;;;5.10;3.30;;;;;;;22.43;30.31;100678.34;104413;1290;61319;-82
2024/02/06 02:41:32;;;;;;;5.80;3.40;;;;;;;22.42;30.30;100681.59;104394;1290;61310;-82
2024/02/06 02:43:58;;;;;;;4.70;3.00;;;;;;;22.42;30.32;100681.79;104535;1295;61386;-82
2024/02/06 02:46:24;;;;;;;5.20;3.40;;;;;;;22.41;30.13;100683.63;104412;1290;61413;-82
2024/02/06 02:48:50;;;;;;;5.50;3.60;;;;;;;22.41;30.21;100685.45;104688;1290;61315;-82
2024/02/06 02:51:15;;;;;;;6.30;3.60;;;;;;;22.41;30.20;100688.48;104471;1290;61325;-81
2024/02/06 02:53:41;;;;;;;5.30;3.00;;;;;;;22.41;30.17;100693.37;104611;1290;61290;-81
2024/02/06 02:56:07;;;;;;;5.50;3.60;;;;;;;22.41;30.22;100694.45;104725;1290;61301;-81
2024/02/06 02:58:34;;;;;;;5.80;3.50;;;;;;;22.41;30.26;100699.28;104560;1289;61358;-81
2024/02/06 03:01:00;;;;;;;5.90;3.30;;;;;;;22.40;30.17;100699.34;104634;1290;61258;-81
2024/02/06 03:03:26;;;;;;;5.20;3.50;;;;;;;22.40;30.29;100700.39;104567;1290;61325;-81
2024/02/06 03:05:51;;;;;;;5.40;3.40;;;;;;;22.40;30.21;100702.42;104605;1290;61376;-81
2024/02/06 03:08:17;;;;;;;6.50;3.50;;;;;;;22.40;30.26;100710.31;104462;1290;61697;-81
2024/02/06 03:10:43;;;;;;;4.50;3.00;;;;;;;22.40;30.27;100715.16;104617;1290;61378;-82
2024/02/06 03:13:09;;;;;;;5.80;3.50;;;;;;;22.39;30.26;100717.17;104540;1291;61361;-82
2024/02/06 03:15:40;;;;;;;5.20;3.30;;;;;;;22.39;30.22;100714.84;104541;1290;61345;-81
2024/02/06 03:18:05;;;;;;;4.90;3.40;;;;;;;22.39;30.28;100718.24;104651;1290;72838;-81
2024/02/06 03:20:31;;;;;;;5.40;3.50;;;;;;;22.39;30.22;100719.34;104629;1290;61370;-82
2024/02/06 03:22:57;;;;;;;6.50;3.50;;;;;;;22.38;30.22;100721.89;104613;1290;62168;-81
2024/02/06 03:25:23;;;;;;;5.20;3.20;;;;;;;22.38;30.21;100718.69;104633;1290;61432;-81
2024/02/06 03:27:50;;;;;;;5.40;3.30;;;;;;;22.38;30.26;100720.64;104590;1289;61453;-81
2024/02/06 03:30:16;;;;;;;5.40;3.30;;;;;;;22.38;30.26;100721.72;104627;1289;61338;-81
2024/02/06 03:32:42;;;;;;;6.00;3.10;;;;;;;22.38;30.17;100720.67;104575;1291;61319;-81
2024/02/06 03:35:08;;;;;;;6.40;3.50;;;;;;;22.38;30.12;100726.75;104434;1290;61376;-82
2024/02/06 03:37:34;;;;;;;5.30;3.30;;;;;;;22.38;30.27;100732.66;104658;1290;61289;-81
2024/02/06 03:39:59;;;;;;;5.40;3.40;;;;;;;22.37;30.11;100723.41;104588;1290;72645;-81
2024/02/06 03:42:25;;;;;;;5.70;3.50;;;;;;;22.37;30.16;100724.51;104517;1290;61419;-81
2024/02/06 03:44:51;;;;;;;5.40;3.30;;;;;;;22.37;30.14;100722.02;104467;1290;61831;-81
2024/02/06 03:47:17;;;;;;;5.90;3.40;;;;;;;22.37;30.16;100716.45;104532;1290;61322;-82
2024/02/06 03:49:43;;;;;;;4.70;3.10;;;;;;;22.37;30.27;100716.11;104536;1290;59277;-82
2024/02/06 03:52:09;;;;;;;5.00;3.20;;;;;;;22.36;30.33;100712.54;104567;1290;61296;-82
2024/02/06 03:54:34;;;;;;;5.70;3.50;;;;;;;22.36;30.13;100711.98;104623;1290;61789;-82
2024/02/06 03:57:00;;;;;;;4.80;3.10;;;;;;;22.36;30.15;100710.75;104641;1294;61371;-82
2024/02/06 03:59:26;;;;;;;5.70;3.30;;;;;;;22.36;30.23;100713.08;104599;1290;59195;-82
2024/02/06 04:01:51;;;;;;;4.80;3.20;;;;;;;22.35;30.13;100713.17;104355;1290;61265;-82
2024/02/06 04:04:17;;;;;;;5.50;3.30;;;;;;;22.36;30.06;100715.30;104405;1290;61343;-82
2024/02/06 04:06:43;;;;;;;6.00;3.70;;;;;;;22.35;30.09;100718.35;104563;1290;62336;-82
2024/02/06 04:09:10;;;;;;;5.70;3.30;;;;;;;22.35;30.09;100717.48;104476;1290;61397;-82
2024/02/06 04:11:42;;;;;;;5.60;3.40;;;;;;;22.35;30.13;100719.45;104646;1290;60232;-82
2024/02/06 04:14:08;;;;;;;5.60;3.20;;;;;;;22.35;30.02;100723.08;104716;1290;61400;-82
2024/02/06 04:16:34;;;;;;;5.40;3.10;;;;;;;22.35;30.13;100722.52;104552;1290;61386;-82
2024/02/06 04:18:59;;;;;;;4.80;3.00;;;;;;;22.34;30.06;100717.55;104536;1291;61206;-82
2024/02/06 04:21:26;;;;;;;4.70;2.90;;;;;;;22.34;30.01;100721.69;104669;1290;59301;-82
2024/02/06 04:23:52;;;;;;;4.50;3.20;;;;;;;22.33;30.14;100723.72;104773;1290;61285;-82
2024/02/06 04:26:17;;;;;;;5.20;2.90;;;;;;;22.33;30.13;100719.21;104765;1290;61245;-82
2024/02/06 04:28:43;;;;;;;5.30;3.30;;;;;;;22.34;30.14;100721.70;104752;1290;74463;-82
2024/02/06 04:31:09;;;;;;;4.60;3.20;;;;;;;22.34;30.28;100722.08;104649;1290;61461;-82
2024/02/06 04:33:35;;;;;;;6.60;3.10;;;;;;;22.34;30.03;100724.22;104779;1290;59359;-82
2024/02/06 04:36:01;;;;;;;6.00;3.40;;;;;;;22.33;30.13;100724.80;104712;1290;61392;-82
2024/02/06 04:38:27;;;;;;;6.30;3.20;;;;;;;22.33;30.18;100725.52;104842;1289;61388;-82
2024/02/06 04:40:53;;;;;;;5.40;3.20;;;;;;;22.32;30.03;100718.94;104727;1290;61372;-82
2024/02/06 04:43:18;;;;;;;5.60;3.10;;;;;;;22.32;30.09;100722.56;104715;1290;61310;-81
2024/02/06 04:45:44;;;;;;;4.60;3.20;;;;;;;22.32;29.91;100727.20;104758;1290;61157;-81
2024/02/06 04:48:10;;;;;;;5.60;3.50;;;;;;;22.32;30.11;100724.02;104685;1291;61387;-81
2024/02/06 04:50:36;;;;;;;6.10;3.50;;;;;;;22.32;29.87;100722.95;104772;1290;61339;-79
2024/02/06 04:53:04;;;;;;;5.80;3.10;;;;;;;22.31;29.91;100722.83;104816;1290;61274;-80
2024/02/06 04:55:31;;;;;;;6.00;3.50;;;;;;;22.30;29.97;100720.36;104811;1290;61522;-82
2024/02/06 04:58:00;;;;;;;5.90;3.10;;;;;;;22.29;30.05;100715.75;104654;1290;72354;-82
2024/02/06 05:00:26;;;;;;;5.00;3.20;;;;;;;22.30;30.06;100714.85;104663;1290;74272;-81
2024/02/06 05:02:51;;;;;;;6.50;3.30;;;;;;;22.29;30.10;100711.86;104801;1291;61404;-81
2024/02/06 05:05:17;;;;;;;5.10;3.10;;;;;;;22.29;30.12;100709.54;104679;1290;61418;-81
2024/02/06 05:07:43;;;;;;;6.40;3.10;;;;;;;22.28;29.90;100707.23;104826;1290;61210;-81
2024/02/06 05:10:10;;;;;;;5.60;3.10;;;;;;;22.28;30.02;100710.30;104743;1290;61250;-81
2024/02/06 05:12:37;;;;;;;6.10;3.00;;;;;;;22.28;30.02;100708.14;104883;1290;61217;-81
2024/02/06 05:15:09;;;;;;;5.00;3.20;;;;;;;22.28;30.02;100711.94;104705;1290;61440;-81
2024/02/06 05:17:34;;;;;;;6.00;3.20;;;;;;;22.27;29.98;100708.77;104462;1293;72911;-81
2024/02/06 05:20:01;;;;;;;4.80;3.10;;;;;;;22.26;29.84;100708.08;104519;1291;61395;-79
2024/02/06 05:22:27;;;;;;;5.50;3.40;;;;;;;22.26;29.84;100710.42;104442;1293;61327;-79
2024/02/06 05:24:53;;;;;;;7.60;3.50;;;;;;;22.26;29.94;100711.54;104524;1292;61313;-80
2024/02/06 05:27:19;;;;;;;5.00;2.90;;;;;;;22.26;29.83;100711.71;104386;1293;63195;-80
2024/02/06 05:29:44;;;;;;;5.50;3.20;;;;;;;22.25;29.78;100710.52;104544;1295;59089;-79
2024/02/06 05:32:10;;;;;;;6.70;3.10;;;;;;;22.25;29.88;100710.73;104556;1292;59345;-80
2024/02/06 05:34:36;;;;;;;6.50;3.20;;;;;;;22.24;29.69;100714.17;104616;1298;61323;-81
2024/02/06 05:37:01;;;;;;;6.20;3.30;;;;;;;22.24;29.77;100711.34;104560;1298;61478;-80
2024/02/06 05:39:27;;;;;;;7.20;3.20;;;;;;;22.24;29.75;100714.73;104397;1293;61320;-80
2024/02/06 05:41:53;;;;;;;5.70;3.00;;;;;;;22.23;29.63;100715.69;104558;1292;61360;-80
2024/02/06 05:44:19;;;;;;;7.30;3.50;;;;;;;22.24;29.74;100714.94;104681;1291;61307;-80
2024/02/06 05:46:44;;;;;;;7.30;3.20;;;;;;;22.22;29.76;100722.21;104303;1292;59517;-81
2024/02/06 05:49:10;;;;;;;6.50;3.30;;;;;;;22.22;29.69;100715.25;104497;1290;61511;-80
2024/02/06 05:51:35;;;;;;;5.70;3.20;;;;;;;22.22;29.88;100718.63;104573;1290;72452;-80
2024/02/06 05:54:01;;;;;;;6.00;3.10;;;;;;;22.21;29.84;100718.70;104823;1290;61944;-79
2024/02/06 05:56:27;;;;;;;6.30;3.10;;;;;;;22.21;29.76;100718.13;104532;1290;61289;-80
2024/02/06 05:58:53;;;;;;;6.40;2.90;;;;;;;22.21;29.81;100728.92;104526;1292;61424;-81
2024/02/06 06:01:19;;;;;;;6.50;3.40;;;;;;;22.21;29.86;100732.71;104674;1290;61336;-80
2024/02/06 06:03:44;;;;;;;6.20;3.30;;;;;;;22.21;29.81;100731.30;104603;1295;61248;-80
2024/02/06 06:06:10;;;;;;;7.90;3.50;;;;;;;22.19;29.86;100735.95;104599;1291;74706;-80
2024/02/06 06:08:36;;;;;;;8.90;3.10;;;;;;;22.18;29.90;100736.88;104754;1290;61355;-80
2024/02/06 06:11:01;;;;;;;7.50;3.10;;;;;;;22.17;29.88;100734.40;104669;1290;61342;-80
2024/02/06 06:13:27;;;;;;;5.90;3.40;;;;;;;22.18;29.84;100736.71;104894;1293;62267;-81
2024/02/06 06:16:00;;;;;;;9.60;3.60;;;;;;;22.18;30.09;100737.63;104637;1295;61405;-81
2024/02/06 06:18:26;;;;;;;10.60;3.70;;;;;;;22.17;30.02;100735.35;104690;1291;59148;-80
2024/02/06 06:20:51;;;;;;;7.00;3.40;;;;;;;22.15;30.03;100741.73;104719;1291;61425;-81
2024/02/06 06:23:17;;;;;;;8.70;3.60;;;;;;;22.13;30.20;100737.61;104567;1290;61317;-81
2024/02/06 06:25:44;;;;;;;10.90;3.60;;;;;;;22.12;30.23;100747.94;104168;1296;61400;-82
2024/02/06 06:28:09;;;;;;;12.10;3.60;;;;;;;22.12;30.29;100754.21;104328;1293;61290;-82
2024/02/06 06:30:36;;;;;;;11.00;3.50;;;;;;;22.12;30.31;100750.59;104469;1290;61333;-81
2024/02/06 06:33:03;;;;;;;8.10;3.50;;;;;;;22.13;30.38;100758.27;104538;1290;62512;-82
2024/02/06 06:35:29;;;;;;;9.20;3.60;;;;;;;22.12;30.40;100758.12;104694;1290;61240;-80
2024/02/06 06:37:55;;;;;;;7.20;3.10;;;;;;;22.13;30.17;100754.64;104643;1290;61365;-80
2024/02/06 06:40:21;;;;;;;11.00;3.80;;;;;;;22.13;30.23;100761.98;104477;1289;61369;-80
2024/02/06 06:42:46;;;;;;;9.60;3.90;;;;;;;22.13;30.15;100761.46;104703;1290;61184;-80
2024/02/06 06:45:12;;;;;;;9.90;3.20;;;;;;;22.13;30.35;100759.84;104653;1295;61333;-81
2024/02/06 06:47:39;;;;;;;10.00;3.80;;;;;;;22.13;30.20;100767.19;104840;1290;61771;-81
2024/02/06 06:50:08;;;;;;;6.40;3.30;;;;;;;22.13;30.14;100763.77;104640;1293;61322;-81
2024/02/06 06:52:34;;;;;;;8.50;3.40;;;;;;;22.14;30.37;100762.11;104639;1290;61476;-81
2024/02/06 06:54:59;;;;;;;7.80;3.30;;;;;;;22.14;30.10;100767.34;104586;1295;61418;-81
2024/02/06 06:57:25;;;;;;;7.40;3.50;;;;;;;22.14;30.17;100764.80;104710;1291;62435;-81
2024/02/06 06:59:51;;;;;;;7.50;3.40;;;;;;;22.14;30.18;100761.40;104688;1290;61412;-81
2024/02/06 07:02:18;;;;;;;9.00;3.90;;;;;;;22.14;30.12;100761.19;104655;1291;61393;-81
2024/02/06 07:04:44;;;;;;;5.80;3.00;;;;;;;22.14;30.20;100762.29;104893;1290;61428;-80
2024/02/06 07:07:10;;;;;;;11.00;3.70;;;;;;;22.14;30.18;100762.85;104769;1290;61388;-81
2024/02/06 07:09:36;;;;;;;7.30;3.60;;;;;;;22.14;30.01;100762.67;104798;1291;61456;-82
2024/02/06 07:12:01;;;;;;;6.20;3.50;;;;;;;22.13;30.17;100761.98;104807;1289;61375;-82
2024/02/06 07:14:27;;;;;;;6.70;3.30;;;;;;;22.13;30.05;100755.73;104714;1290;61399;-81
2024/02/06 07:16:53;;;;;;;9.80;3.50;;;;;;;22.13;30.14;100758.75;104580;1290;61396;-82
2024/02/06 07:19:19;;;;;;;7.30;3.10;;;;;;;22.13;30.12;100757.69;104629;1290;61301;-81
2024/02/06 07:21:57;;;;;;;5.90;3.20;;;;;;;22.13;30.12;100760.57;104398;1295;61393;-81
2024/02/06 07:24:25;;;;;;;7.30;3.50;;;;;;;22.13;30.01;100765.40;104335;1290;61317;-81
2024/02/06 07:26:51;;;;;;;6.30;3.30;;;;;;;22.13;30.01;100761.70;104430;1293;72461;-81
2024/02/06 07:29:18;;;;;;;5.80;3.20;;;;;;;22.13;30.09;100761.13;104451;1290;74235;-82
2024/02/06 07:31:44;;;;;;;7.40;3.40;;;;;;;22.13;30.14;100761.84;104482;1292;61169;-82
2024/02/06 07:34:10;;;;;;;8.60;3.40;;;;;;;22.12;30.11;100758.46;104351;1290;61390;-81
2024/02/06 07:36:36;;;;;;;7.30;3.10;;;;;;;22.13;30.06;100761.33;104522;1289;61343;-81
2024/02/06 07:39:01;;;;;;;5.30;3.30;;;;;;;22.12;29.99;100759.90;104505;1296;61301;-80
2024/02/06 07:41:27;;;;;;;8.40;3.50;;;;;;;22.13;30.03;100760.95;104545;1290;61561;-79
2024/02/06 07:43:53;;;;;;;6.70;3.20;;;;;;;22.13;30.11;100757.52;104574;1290;61293;-80
2024/02/06 07:46:19;;;;;;;5.50;3.00;;;;;;;22.12;29.94;100750.94;104471;1297;61319;-81
2024/02/06 07:48:45;;;;;;;5.40;3.30;;;;;;;22.13;29.90;100760.02;104231;1298;72306;-81
2024/02/06 07:51:14;;;;;;;7.50;3.50;;;;;;;22.13;29.99;100761.27;104404;1293;61451;-80
2024/02/06 07:53:42;;;;;;;5.70;3.10;;;;;;;22.14;30.04;100762.67;104395;1296;61189;-80
2024/02/06 07:56:07;;;;;;;5.40;3.20;;;;;;;22.13;29.96;100761.10;104205;1293;61932;-81
2024/02/06 07:58:33;;;;;;;5.60;3.10;;;;;;;22.14;29.95;100759.45;104384;1294;61538;-81
2024/02/06 08:00:59;;;;;;;6.60;3.20;;;;;;;22.14;29.93;100760.35;104207;1293;61347;-80
2024/02/06 08:03:25;;;;;;;7.70;3.60;;;;;;;22.14;29.73;100762.29;104187;1292;61596;-81
2024/02/06 08:05:50;;;;;;;9.80;3.40;;;;;;;22.14;29.95;100763.89;103649;1293;1141073;-80
2024/02/06 08:08:16;;;;;;;6.70;3.40;;;;;;;22.14;29.98;100762.63;104099;1294;59262;-81
2024/02/06 08:10:42;;;;;;;7.00;3.40;;;;;;;22.15;30.00;100765.61;104487;1293;72485;-81
2024/02/06 08:13:07;;;;;;;6.90;3.20;;;;;;;22.16;29.89;100763.61;104293;1299;61295;-81
2024/02/06 08:15:33;;;;;;;5.70;3.00;;;;;;;22.15;29.88;100765.22;104097;1296;62138;-81
2024/02/06 08:17:59;;;;;;;5.70;3.20;;;;;;;22.16;29.85;100768.41;104251;1293;61359;-81
2024/02/06 08:20:25;;;;;;;6.80;3.00;;;;;;;22.17;29.90;100766.22;104504;1293;59403;-81
2024/02/06 08:22:51;;;;;;;5.50;3.30;;;;;;;22.16;29.98;100761.95;104426;1292;61515;-81
2024/02/06 08:25:22;;;;;;;6.30;3.40;;;;;;;22.17;29.92;100765.84;104633;1293;59281;-81
2024/02/06 08:27:48;;;;;;;7.30;3.20;;;;;;;22.17;29.83;100760.98;104327;1297;61404;-80
2024/02/06 08:30:14;;;;;;;6.00;3.20;;;;;;;22.17;29.88;100762.09;104531;1293;59445;-81
2024/02/06 08:32:40;;;;;;;9.20;3.50;;;;;;;22.17;29.74;100761.17;104519;1295;61432;-80
2024/02/06 08:35:06;;;;;;;7.80;3.50;;;;;;;22.17;29.91;100762.56;104633;1293;61427;-81
2024/02/06 08:37:32;;;;;;;6.80;3.20;;;;;;;22.18;29.98;100762.17;104476;1293;61259;-81
2024/02/06 08:39:59;;;;;;;6.00;3.30;;;;;;;22.18;30.11;100765.91;104461;1293;61384;-81
2024/02/06 08:42:25;;;;;;;8.20;3.20;;;;;;;22.19;30.27;100767.48;104480;1299;61389;-80
2024/02/06 08:44:50;;;;;;;6.10;3.40;;;;;;;22.18;30.30;100761.27;104382;1298;61952;-81
2024/02/06 08:47:16;;;;;;;6.80;3.30;;;;;;;22.17;30.27;100760.05;104367;1292;61354;-81
2024/02/06 08:49:42;;;;;;;7.70;3.50;;;;;;;22.18;30.15;100764.15;104480;1291;61721;-81
2024/02/06 08:52:08;;;;;;;6.70;3.50;;;;;;;22.17;30.46;100761.53;104584;1293;61418;-80
2024/02/06 08:54:34;;;;;;;6.10;3.50;;;;;;;22.17;30.51;100759.05;104819;1291;61339;-82
2024/02/06 08:56:59;;;;;;;6.70;3.20;;;;;;;22.16;30.42;100761.02;104828;1291;61293;-82
2024/02/06 08:59:25;;;;;;;9.00;3.50;;;;;;;22.17;30.65;100762.05;104720;1293;61329;-80
2024/02/06 09:01:51;;;;;;;7.10;3.40;;;;;;;22.17;30.44;100759.53;104888;1293;59857;-81
2024/02/06 09:04:16;;;;;;;7.00;3.30;;;;;;;22.18;30.56;100752.52;104725;1291;61306;-81
2024/02/06 09:06:42;;;;;;;8.10;3.40;;;;;;;22.18;30.60;100753.20;104822;1292;60242;-81
2024/02/06 09:09:09;;;;;;;6.70;3.40;;;;;;;22.17;30.59;100750.73;104634;1290;61373;-81
2024/02/06 09:11:34;;;;;;;7.80;3.40;;;;;;;22.17;30.47;100752.36;104470;1293;61327;-82
2024/02/06 09:14:00;;;;;;;8.50;3.70;;;;;;;22.16;30.51;100750.83;104481;1293;59377;-82
2024/02/06 09:16:26;;;;;;;6.70;3.70;;;;;;;22.16;30.74;100749.23;104256;1296;61482;-82
2024/02/06 09:18:52;;;;;;;7.00;3.40;;;;;;;22.16;30.70;100752.83;104284;1291;61397;-81
2024/02/06 09:21:19;;;;;;;7.40;3.60;;;;;;;22.16;30.75;100753.37;104457;1291;61418;-82
2024/02/06 09:23:45;;;;;;;9.60;3.60;;;;;;;22.16;30.81;100756.41;104260;1291;61427;-82
2024/02/06 09:26:11;;;;;;;10.00;3.90;;;;;;;22.16;30.83;100751.75;105103;1295;61215;-85
2024/02/06 09:28:38;;;;;;;6.90;3.70;;;;;;;22.16;30.85;100749.75;104742;1290;61412;-81
2024/02/06 09:31:05;;;;;;;7.70;3.60;;;;;;;22.17;30.83;100744.70;104661;1293;62049;-82
2024/02/06 09:33:31;;;;;;;7.00;3.60;;;;;;;22.17;30.79;100741.45;105062;1290;62948;-82
2024/02/06 09:35:57;;;;;;;7.40;3.60;;;;;;;22.16;30.88;100737.36;105340;1293;59100;-82
2024/02/06 09:38:23;;;;;;;9.00;3.90;;;;;;;22.15;30.81;100737.83;105432;1290;61347;-82
2024/02/06 09:40:50;;;;;;;9.60;3.60;;;;;;;22.16;30.94;100743.48;105402;1293;59186;-83
2024/02/06 09:43:16;;;;;;;5.80;3.50;;;;;;;22.16;30.94;100734.00;105803;1293;59144;-82
2024/02/06 09:45:42;;;;;;;11.30;3.40;;;;;;;22.15;30.86;100734.58;105400;1295;59378;-81
2024/02/06 09:48:07;;;;;;;6.40;3.50;;;;;;;22.14;30.82;100737.70;105327;1290;59093;-81
2024/02/06 09:50:36;;;;;;;7.60;3.50;;;;;;;22.13;30.77;100732.63;105394;1290;61262;-81
2024/02/06 09:53:02;;;;;;;8.20;3.70;;;;;;;22.12;30.70;100731.79;105575;1289;59651;-81
2024/02/06 09:55:28;;;;;;;10.10;3.50;;;;;;;22.13;30.64;100729.23;105193;1295;59265;-82
2024/02/06 09:57:54;;;;;;;12.60;3.90;;;;;;;22.13;30.56;100724.73;105114;1290;59911;-81
2024/02/06 10:00:21;;;;;;;12.00;3.70;;;;;;;22.13;30.57;100719.34;105061;1290;61389;-81
2024/02/06 10:02:48;;;;;;;10.30;3.40;;;;;;;22.15;30.47;100713.86;104879;1294;59257;-81
2024/02/06 10:05:21;;;;;;;9.80;3.60;;;;;;;22.17;30.53;100720.98;104704;1295;59465;-80
2024/02/06 10:07:51;;;;;;;6.50;3.30;;;;;;;22.20;30.57;100711.99;104612;1292;74823;-80
2024/02/06 10:10:18;;;;;;;9.50;3.60;;;;;;;22.23;30.42;100711.02;104248;1291;61270;-80
2024/02/06 10:12:44;;;;;;;6.60;3.50;;;;;;;22.25;30.49;100702.84;104395;1291;60195;-80
2024/02/06 10:15:16;;;;;;;7.00;3.40;;;;;;;22.27;30.51;100702.10;104364;1290;61441;-80
2024/02/06 10:17:42;;;;;;;8.10;3.50;;;;;;;22.29;30.44;100695.52;104256;1295;74542;-80
2024/02/06 10:20:12;;;;;;;7.00;3.50;;;;;;;22.31;30.38;100695.95;104275;1291;61396;-81
2024/02/06 10:22:39;;;;;;;7.90;3.50;;;;;;;22.33;30.40;100690.77;104411;1291;62036;-80
2024/02/06 10:25:08;;;;;;;7.50;3.30;;;;;;;22.32;30.34;100685.39;104465;1295;72401;-79
2024/02/06 10:27:33;;;;;;;6.90;3.10;;;;;;;22.33;30.42;100686.26;104223;1296;74274;-81
2024/02/06 10:30:00;;;;;;;8.90;3.40;;;;;;;22.32;30.41;100686.13;104429;1291;61360;-79
2024/02/06 10:32:44;;;;;;;7.50;3.40;;;;;;;22.32;30.36;100683.11;104443;1290;61348;-81
2024/02/06 10:35:10;;;;;;;8.10;3.30;;;;;;;22.32;30.23;100685.48;104639;1293;71528;-81
2024/02/06 10:37:36;;;;;;;7.80;3.40;;;;;;;22.30;30.23;100679.84;104307;1290;61290;-81
2024/02/06 10:40:07;;;;;;;7.90;3.30;;;;;;;22.30;30.22;100679.89;104451;1290;61294;-80
2024/02/06 10:42:34;;;;;;;8.50;3.40;;;;;;;22.29;30.20;100676.01;104571;1295;59933;-80
2024/02/06 10:45:00;;;;;;;7.00;3.20;;;;;;;22.28;30.24;100678.05;104536;1291;61387;-81
2024/02/06 10:47:26;;;;;;;7.90;3.30;;;;;;;22.28;30.21;100682.33;104459;1293;61531;-80
2024/02/06 10:50:10;;;;;;;6.70;3.40;;;;;;;22.28;30.27;100681.43;104768;1291;61384;-81
2024/02/06 10:52:39;;;;;;;7.30;3.40;;;;;;;22.27;30.22;100679.38;104420;1291;61294;-80
2024/02/06 10:55:07;;;;;;;9.10;3.70;;;;;;;22.26;30.04;100675.29;104421;1290;61419;-80
2024/02/06 10:57:36;;;;;;;8.00;3.50;;;;;;;22.27;30.15;100682.58;104473;1291;74550;-81
2024/02/06 11:00:11;;;;;;;10.10;4.10;;;;;;;22.25;30.28;100674.99;104602;1290;60242;-80
2024/02/06 11:02:46;;;;;;;13.60;4.20;;;;;;;22.23;30.17;100669.27;104929;1289;61512;-80
2024/02/06 11:05:34;;;;;;;10.00;4.70;;;;;;;22.18;29.94;100668.39;105217;1288;72444;-80
2024/02/06 11:08:06;;;;;;;11.10;4.20;;;;;;;22.14;29.92;100666.77;105358;1291;74530;-80
2024/02/06 11:10:51;;;;;;;13.00;4.80;;;;;;;22.11;29.69;100660.70;105541;1289;60122;-80
2024/02/06 11:13:38;;;;;;;14.70;4.90;;;;;;;22.09;29.62;100663.59;105216;1288;61298;-79